Time;durP1;ratioP1;P1;durP2;ratioP2;P2;SDS_P1;SDS_P2;PMS_P1;PMS_P2;Temp;Humidity;BMP_temperature;BMP_pressure;BME280_temperature;BME280_humidity;BME280_pressure;Samples;Min_cycle;Max_cycle;Signal;HPM_P1;HPM_P2
2023/04/13 00:02:22;;;;;;;;;;;;;;;3.11;95.10;99957.69;5045796;28;20004;-71
2023/04/13 00:04:49;;;;;;;;;;;;;;;2.99;95.50;99965.72;5057546;28;19966;-72
2023/04/13 00:07:17;;;;;;;;;;;;;;;2.99;95.44;99965.72;5054571;28;19956;-71
2023/04/13 00:09:46;;;;;;;;;;;;;;;2.98;95.53;99970.19;5061445;28;20038;-72
2023/04/13 00:12:13;;;;;;;;;;;;;;;2.88;95.49;99969.22;5038823;28;19946;-71
2023/04/13 00:14:39;;;;;;;;;;;;;;;2.87;95.90;99971.06;5043294;28;20049;-72
2023/04/13 00:17:05;;;;;;;;;;;;;;;2.96;96.01;99968.81;5063122;28;20400;-72
2023/04/13 00:19:31;;;;;;;;;;;;;;;3.05;95.65;99966.56;5062586;28;19944;-71
2023/04/13 00:21:56;;;;;;;;;;;;;;;3.07;95.52;99959.22;5051914;28;19956;-73
2023/04/13 00:24:22;;;;;;;;;;;;;;;3.14;95.45;99962.53;5053769;28;19948;-70
2023/04/13 00:26:47;;;;;;;;;;;;;;;2.88;95.54;99958.63;5061807;28;19979;-70
2023/04/13 00:29:13;;;;;;;;;;;;;;;2.76;95.79;99963.16;5032809;28;19962;-71
2023/04/13 00:31:38;;;;;;;;;;;;;;;2.92;95.48;99965.06;5044179;28;19980;-71
2023/04/13 00:34:06;;;;;;;;;;;;;;;2.94;95.69;99963.78;5054109;28;20431;-71
2023/04/13 00:36:32;;;;;;;;;;;;;;;2.95;95.49;99960.09;5062056;28;19932;-71
2023/04/13 00:38:57;;;;;;;;;;;;;;;2.94;95.71;99960.31;5054483;28;19933;-72
2023/04/13 00:41:24;;;;;;;;;;;;;;;2.90;95.62;99945.97;5047133;28;19956;-72
2023/04/13 00:43:51;;;;;;;;;;;;;;;2.92;95.62;99954.47;5048960;28;20439;-72
2023/04/13 00:46:17;;;;;;;;;;;;;;;2.93;95.50;99956.09;5082450;28;19931;-72
2023/04/13 00:48:44;;;;;;;;;;;;;;;2.82;95.50;99957.72;5081753;28;19954;-73
2023/04/13 00:51:12;;;;;;;;;;;;;;;2.79;95.57;99952.94;5050509;28;20515;-72
2023/04/13 00:53:39;;;;;;;;;;;;;;;2.80;95.58;99956.38;5055175;28;19961;-71
2023/04/13 00:56:05;;;;;;;;;;;;;;;2.67;95.58;99954.81;5065335;28;19961;-71
2023/04/13 00:58:31;;;;;;;;;;;;;;;2.64;95.78;99950.81;5067438;28;20031;-72
2023/04/13 01:00:57;;;;;;;;;;;;;;;2.74;95.47;99952.84;5051637;28;20002;-72
2023/04/13 01:03:24;;;;;;;;;;;;;;;2.64;95.29;99952.63;5062894;28;20382;-72
2023/04/13 01:06:08;;;;;;;;;;;;;;;2.68;95.43;99951.13;5050871;28;19934;-71
2023/04/13 01:08:38;;;;;;;;;;;;;;;2.67;95.49;99944.25;5058383;28;20019;-72
2023/04/13 01:11:08;;;;;;;;;;;;;;;2.51;95.45;99948.47;5059209;28;20345;-73
2023/04/13 01:13:46;;;;;;;;;;;;;;;2.71;95.97;99958.59;5067437;28;19952;-71
2023/04/13 01:16:20;;;;;;;;;;;;;;;2.45;95.94;99950.19;5053183;28;19958;-71
2023/04/13 01:18:49;;;;;;;;;;;;;;;2.36;95.94;99958.72;5049759;28;19937;-71
2023/04/13 01:21:18;;;;;;;;;;;;;;;2.18;96.02;99962.34;5034954;28;19980;-72
2023/04/13 01:23:53;;;;;;;;;;;;;;;2.26;95.97;99961.16;5065941;28;19946;-71
2023/04/13 01:26:21;;;;;;;;;;;;;;;2.12;95.85;99971.19;5049599;28;20459;-72
2023/04/13 01:28:50;;;;;;;;;;;;;;;2.01;95.68;99959.59;5057593;28;19928;-72
2023/04/13 01:31:16;;;;;;;;;;;;;;;2.12;96.09;99953.50;5061952;28;20469;-71
2023/04/13 01:33:42;;;;;;;;;;;;;;;2.16;95.81;99959.09;5078046;28;19942;-73
2023/04/13 01:36:11;;;;;;;;;;;;;;;1.97;95.63;99952.38;5027695;28;20643;-72
2023/04/13 01:38:37;;;;;;;;;;;;;;;1.83;95.88;99947.34;5045497;28;19987;-72
2023/04/13 01:41:05;;;;;;;;;;;;;;;1.69;95.79;99945.16;5062962;28;19957;-72
2023/04/13 01:43:33;;;;;;;;;;;;;;;1.60;95.84;99953.44;5062880;28;20742;-72
2023/04/13 01:46:12;;;;;;;;;;;;;;;1.74;96.04;99955.84;5063121;28;19981;-72
2023/04/13 01:48:55;;;;;;;;;;;;;;;1.79;96.30;99946.19;5048764;28;19944;-72
2023/04/13 01:51:41;;;;;;;;;;;;;;;1.85;96.38;99947.91;5062487;28;19932;-71
2023/04/13 01:54:12;;;;;;;;;;;;;;;1.81;96.48;99954.69;5039516;28;20443;-71
2023/04/13 01:56:38;;;;;;;;;;;;;;;1.72;96.78;99948.16;5046276;28;20306;-71
2023/04/13 01:59:05;;;;;;;;;;;;;;;1.89;96.84;99946.41;5051433;28;20353;-71
2023/04/13 02:01:31;;;;;;;;;;;;;;;2.02;96.99;99940.06;5071638;28;20404;-71
2023/04/13 02:03:57;;;;;;;;;;;;;;;2.12;97.09;99942.13;5059398;28;20423;-72
2023/04/13 02:06:28;;;;;;;;;;;;;;;2.18;96.93;99947.28;5048102;28;20063;-72
2023/04/13 02:08:54;;;;;;;;;;;;;;;2.15;97.16;99941.66;5050998;28;20020;-73
2023/04/13 02:11:20;;;;;;;;;;;;;;;2.12;96.95;99944.78;5026126;28;19943;-72
2023/04/13 02:13:46;;;;;;;;;;;;;;;2.21;96.89;99953.94;5043762;28;20630;-72
2023/04/13 02:16:16;;;;;;;;;;;;;;;2.26;96.78;99940.84;5053988;28;19940;-71
2023/04/13 02:18:41;;;;;;;;;;;;;;;2.34;96.49;99943.09;5035457;28;20013;-71
2023/04/13 02:21:08;;;;;;;;;;;;;;;2.32;96.24;99950.47;5046628;28;19959;-71
2023/04/13 02:23:34;;;;;;;;;;;;;;;2.35;96.11;99949.19;5078850;28;19946;-71
2023/04/13 02:26:01;;;;;;;;;;;;;;;2.36;95.85;99954.22;5047185;28;19937;-71
2023/04/13 02:28:29;;;;;;;;;;;;;;;2.24;96.00;99961.41;5044984;28;20058;-71
2023/04/13 02:30:55;;;;;;;;;;;;;;;2.27;96.37;99958.28;5068866;28;19938;-73
2023/04/13 02:33:22;;;;;;;;;;;;;;;2.28;95.93;99965.16;5047865;28;20002;-71
2023/04/13 02:35:48;;;;;;;;;;;;;;;2.30;95.90;99967.56;5065508;28;19931;-72
2023/04/13 02:38:15;;;;;;;;;;;;;;;2.22;96.07;99960.81;5041067;28;19937;-72
2023/04/13 02:40:45;;;;;;;;;;;;;;;2.18;96.08;99967.63;5046705;28;19940;-71
2023/04/13 02:43:11;;;;;;;;;;;;;;;2.08;96.14;99965.56;5046458;28;19981;-72
2023/04/13 02:45:38;;;;;;;;;;;;;;;1.95;96.19;99975.56;5042704;28;19948;-72
2023/04/13 02:48:09;;;;;;;;;;;;;;;1.82;96.31;99966.84;5055381;28;19933;-72
2023/04/13 02:50:36;;;;;;;;;;;;;;;1.80;96.49;99962.84;5042273;28;20031;-72
2023/04/13 02:53:06;;;;;;;;;;;;;;;1.84;96.65;99959.53;5044697;28;19954;-72
2023/04/13 02:55:33;;;;;;;;;;;;;;;1.85;96.99;99955.84;5060810;28;20419;-72
2023/04/13 02:58:10;;;;;;;;;;;;;;;1.81;96.88;99965.25;5048793;28;20338;-73
2023/04/13 03:00:37;;;;;;;;;;;;;;;1.78;97.15;99964.91;5050781;28;20491;-72
2023/04/13 03:03:08;;;;;;;;;;;;;;;1.79;96.97;99954.13;5049057;28;19944;-73
2023/04/13 03:05:41;;;;;;;;;;;;;;;1.79;96.82;99956.75;5065788;28;20396;-73
2023/04/13 03:08:11;;;;;;;;;;;;;;;1.74;96.89;99948.72;5038790;28;19939;-71
2023/04/13 03:10:44;;;;;;;;;;;;;;;1.74;96.94;99950.56;5046298;28;20403;-71
2023/04/13 03:13:09;;;;;;;;;;;;;;;1.77;97.00;99942.19;5059526;28;20021;-71
2023/04/13 03:15:36;;;;;;;;;;;;;;;1.83;96.88;99950.00;5056219;28;19935;-71
2023/04/13 03:18:02;;;;;;;;;;;;;;;1.90;96.61;99945.38;5029288;28;20308;-72
2023/04/13 03:20:30;;;;;;;;;;;;;;;1.95;96.49;99952.59;5056723;28;19984;-72
2023/04/13 03:23:00;;;;;;;;;;;;;;;1.91;96.36;99949.63;5027321;28;20032;-72
2023/04/13 03:25:28;;;;;;;;;;;;;;;1.84;96.28;99950.78;5045738;28;20038;-72
2023/04/13 03:27:53;;;;;;;;;;;;;;;1.78;96.80;99944.59;5059839;28;20379;-72
2023/04/13 03:30:21;;;;;;;;;;;;;;;1.78;96.98;99955.16;5048689;28;19980;-72
2023/04/13 03:32:54;;;;;;;;;;;;;;;1.81;96.49;99961.81;5043189;28;20030;-71
2023/04/13 03:35:23;;;;;;;;;;;;;;;1.68;96.47;99959.41;5046071;28;20461;-72
2023/04/13 03:37:49;;;;;;;;;;;;;;;1.68;96.73;99964.69;5063925;28;19935;-72
2023/04/13 03:40:29;;;;;;;;;;;;;;;1.68;96.73;99964.69;5046000;28;20471;-72
2023/04/13 03:42:55;;;;;;;;;;;;;;;1.65;96.70;99965.94;5054064;28;20658;-72
2023/04/13 03:45:23;;;;;;;;;;;;;;;1.78;97.03;99957.00;5041879;28;19954;-71
2023/04/13 03:47:51;;;;;;;;;;;;;;;1.72;96.71;99957.91;5063239;28;19931;-72
2023/04/13 03:50:18;;;;;;;;;;;;;;;1.83;96.97;99957.91;5046618;28;19935;-72
2023/04/13 03:52:44;;;;;;;;;;;;;;;1.90;96.70;99957.78;5050736;28;19933;-72
2023/04/13 03:55:09;;;;;;;;;;;;;;;1.85;96.65;99961.13;5047564;28;19924;-73
2023/04/13 03:57:37;;;;;;;;;;;;;;;1.99;96.58;99955.59;5035469;28;19996;-72
2023/04/13 04:00:09;;;;;;;;;;;;;;;1.92;96.34;99950.44;5063013;28;19931;-71
2023/04/13 04:02:58;;;;;;;;;;;;;;;1.86;96.82;99946.88;5056670;28;20579;-73
2023/04/13 04:05:31;;;;;;;;;;;;;;;1.87;96.51;99952.97;5051106;28;20734;-72
2023/04/13 04:08:03;;;;;;;;;;;;;;;1.84;96.95;99954.25;5059663;28;19939;-70
2023/04/13 04:10:28;;;;;;;;;;;;;;;1.91;96.46;99954.91;5055119;28;19935;-72
2023/04/13 04:12:56;;;;;;;;;;;;;;;1.86;96.56;99954.78;5058883;28;19973;-72
2023/04/13 04:15:23;;;;;;;;;;;;;;;1.82;96.22;99956.28;5049411;28;21337;-71
2023/04/13 04:17:55;;;;;;;;;;;;;;;1.77;96.55;99953.56;5067884;28;19970;-71
2023/04/13 04:20:20;;;;;;;;;;;;;;;1.76;96.39;99959.88;5052932;28;19948;-71
2023/04/13 04:22:46;;;;;;;;;;;;;;;1.77;96.59;99956.19;5038502;28;19996;-70
2023/04/13 04:25:20;;;;;;;;;;;;;;;1.74;96.68;99958.47;5044055;28;20321;-72
2023/04/13 04:27:48;;;;;;;;;;;;;;;1.81;96.53;99959.97;5047949;28;20003;-72
2023/04/13 04:30:17;;;;;;;;;;;;;;;1.81;96.39;99959.97;5045248;28;19969;-72
2023/04/13 04:32:43;;;;;;;;;;;;;;;1.80;96.36;99960.19;5041714;28;19934;-71
2023/04/13 04:35:13;;;;;;;;;;;;;;;1.94;96.24;99966.03;5030907;28;20008;-71
2023/04/13 04:37:48;;;;;;;;;;;;;;;1.98;96.33;99954.00;5032549;28;19962;-71
2023/04/13 04:40:16;;;;;;;;;;;;;;;2.01;96.32;99961.44;5054448;28;20504;-71
2023/04/13 04:42:42;;;;;;;;;;;;;;;1.99;96.39;99956.41;5045629;28;19956;-72
2023/04/13 04:45:15;;;;;;;;;;;;;;;2.01;95.94;99966.72;5031669;28;20008;-72
2023/04/13 04:47:44;;;;;;;;;;;;;;;2.02;96.19;99960.41;5050210;28;19935;-71
2023/04/13 04:50:16;;;;;;;;;;;;;;;2.07;95.87;99968.44;5080385;28;19987;-72
2023/04/13 04:52:48;;;;;;;;;;;;;;;2.12;96.11;99971.19;5027580;28;20031;-71
2023/04/13 04:55:19;;;;;;;;;;;;;;;2.20;95.59;99981.38;5048522;28;20661;-73
2023/04/13 04:57:45;;;;;;;;;;;;;;;2.24;95.38;99976.47;5064570;28;19963;-73
2023/04/13 05:00:15;;;;;;;;;;;;;;;2.27;95.77;99978.63;5030496;28;20376;-72
2023/04/13 05:02:49;;;;;;;;;;;;;;;2.34;95.74;99974.81;5043333;28;19998;-73
2023/04/13 05:05:15;;;;;;;;;;;;;;;2.40;95.57;99967.78;5042253;28;19955;-73
2023/04/13 05:07:41;;;;;;;;;;;;;;;2.49;95.38;99978.78;5049484;28;20003;-73
2023/04/13 05:10:08;;;;;;;;;;;;;;;2.52;95.57;99975.69;5030210;28;20317;-73
2023/04/13 05:12:36;;;;;;;;;;;;;;;2.65;95.17;99972.78;5031288;28;19961;-73
2023/04/13 05:15:03;;;;;;;;;;;;;;;2.82;94.84;99968.31;5044596;28;19992;-72
2023/04/13 05:17:29;;;;;;;;;;;;;;;2.97;95.07;99963.28;5079800;28;20894;-71
2023/04/13 05:19:55;;;;;;;;;;;;;;;3.10;94.31;99967.47;5059632;28;19937;-72
2023/04/13 05:22:26;;;;;;;;;;;;;;;3.29;94.20;99971.50;5048308;28;19960;-71
2023/04/13 05:24:58;;;;;;;;;;;;;;;3.47;94.29;99967.81;5045267;28;19948;-72
2023/04/13 05:27:26;;;;;;;;;;;;;;;3.69;94.20;99953.84;5044760;28;19997;-72
2023/04/13 05:29:53;;;;;;;;;;;;;;;3.76;92.90;99963.22;5056450;28;20002;-72
2023/04/13 05:32:22;;;;;;;;;;;;;;;3.84;92.83;99973.38;5026690;28;19939;-73
2023/04/13 05:34:50;;;;;;;;;;;;;;;4.09;92.26;99970.28;5066478;28;19950;-74
2023/04/13 05:37:20;;;;;;;;;;;;;;;4.23;92.19;99969.91;5048144;28;20055;-72
2023/04/13 05:39:46;;;;;;;;;;;;;;;4.31;91.78;99980.09;5051241;28;19944;-71
2023/04/13 05:42:14;;;;;;;;;;;;;;;4.32;91.46;99976.38;5063678;28;19964;-73
2023/04/13 05:44:42;;;;;;;;;;;;;;;4.53;91.64;99983.53;5061663;28;19949;-71
2023/04/13 05:47:09;;;;;;;;;;;;;;;4.56;90.97;99979.59;5029653;28;19933;-72
2023/04/13 05:49:35;;;;;;;;;;;;;;;4.56;90.79;99987.56;5049448;28;19936;-72
2023/04/13 05:52:06;;;;;;;;;;;;;;;4.73;90.13;99990.09;5061254;28;19937;-73
2023/04/13 05:54:41;;;;;;;;;;;;;;;4.79;89.99;99987.25;5056685;28;20352;-71
2023/04/13 05:57:07;;;;;;;;;;;;;;;4.87;89.16;100001.94;5049758;28;19931;-73
2023/04/13 05:59:34;;;;;;;;;;;;;;;5.00;89.65;100001.53;5063502;28;19936;-72
2023/04/13 06:02:01;;;;;;;;;;;;;;;5.30;89.80;100003.69;5047645;28;20007;-72
2023/04/13 06:04:27;;;;;;;;;;;;;;;5.46;88.64;99999.28;5075566;28;19949;-71
2023/04/13 06:06:54;;;;;;;;;;;;;;;5.58;88.20;99999.91;5065694;28;20399;-73
2023/04/13 06:09:20;;;;;;;;;;;;;;;5.86;87.50;100003.28;5039537;28;20002;-73
2023/04/13 06:11:45;;;;;;;;;;;;;;;5.75;87.54;99999.75;5056987;28;20454;-71
2023/04/13 06:14:11;;;;;;;;;;;;;;;5.74;87.78;100004.28;5047894;28;19951;-72
2023/04/13 06:16:39;;;;;;;;;;;;;;;5.52;86.98;99998.28;5068105;28;19939;-71
2023/04/13 06:19:05;;;;;;;;;;;;;;;5.44;86.76;99996.91;5048870;28;19937;-71
2023/04/13 06:21:32;;;;;;;;;;;;;;;5.38;87.77;99997.09;5032633;28;20334;-72
2023/04/13 06:23:57;;;;;;;;;;;;;;;5.39;87.86;100004.00;5061262;28;19994;-72
2023/04/13 06:26:27;;;;;;;;;;;;;;;5.41;87.49;99991.28;5059050;28;19929;-71
2023/04/13 06:28:55;;;;;;;;;;;;;;;5.44;87.76;100007.50;5059750;28;19960;-71
2023/04/13 06:31:26;;;;;;;;;;;;;;;5.48;87.44;100002.47;5045318;28;20060;-72
2023/04/13 06:33:53;;;;;;;;;;;;;;;5.54;86.00;100001.47;5042005;28;20633;-71
2023/04/13 06:36:24;;;;;;;;;;;;;;;5.48;87.32;99994.50;5060547;28;19936;-72
2023/04/13 06:38:51;;;;;;;;;;;;;;;5.51;87.13;99996.69;5029779;28;20300;-73
2023/04/13 06:41:18;;;;;;;;;;;;;;;5.50;85.88;99989.78;5058618;28;20007;-73
2023/04/13 06:43:46;;;;;;;;;;;;;;;5.56;85.68;99990.63;5028441;28;19961;-72
2023/04/13 06:46:24;;;;;;;;;;;;;;;5.61;86.57;99985.31;5047988;28;19933;-73
2023/04/13 06:48:53;;;;;;;;;;;;;;;5.68;85.44;99997.31;5048262;28;20011;-73
2023/04/13 06:51:22;;;;;;;;;;;;;;;5.69;85.88;99993.63;5029158;28;19943;-72
2023/04/13 06:53:48;;;;;;;;;;;;;;;5.80;86.12;99996.34;5050726;28;19952;-72
2023/04/13 06:56:14;;;;;;;;;;;;;;;5.88;85.05;100007.28;5066875;28;19941;-72
2023/04/13 06:58:40;;;;;;;;;;;;;;;5.78;83.96;99995.81;5026817;28;19931;-70
2023/04/13 07:01:05;;;;;;;;;;;;;;;5.88;83.72;100006.50;5041827;28;19958;-72
2023/04/13 07:03:34;;;;;;;;;;;;;;;5.95;84.28;99999.13;5043587;28;20207;-70
2023/04/13 07:06:01;;;;;;;;;;;;;;;6.01;84.10;100000.75;5046815;28;19973;-71
2023/04/13 07:08:28;;;;;;;;;;;;;;;6.14;82.77;100000.28;5071125;28;20359;-70
2023/04/13 07:10:54;;;;;;;;;;;;;;;6.40;82.51;100000.44;5041838;28;20404;-72
2023/04/13 07:13:27;;;;;;;;;;;;;;;6.39;81.87;99999.63;5046784;28;20447;-72
2023/04/13 07:15:54;;;;;;;;;;;;;;;6.33;81.63;100003.31;5062583;28;20558;-73
2023/04/13 07:18:20;;;;;;;;;;;;;;;6.31;82.14;100000.13;5033415;28;19921;-72
2023/04/13 07:20:47;;;;;;;;;;;;;;;6.37;82.50;100015.06;5044418;28;20458;-70
2023/04/13 07:23:12;;;;;;;;;;;;;;;6.34;82.82;100015.56;5058094;28;19937;-73
2023/04/13 07:25:38;;;;;;;;;;;;;;;6.36;83.10;100005.44;5040002;28;19933;-72
2023/04/13 07:28:11;;;;;;;;;;;;;;;6.42;83.06;100016.91;5061274;28;20020;-72
2023/04/13 07:30:43;;;;;;;;;;;;;;;6.51;81.15;100012.72;5054887;28;19955;-72
2023/04/13 07:33:09;;;;;;;;;;;;;;;6.56;80.93;100010.84;5057187;28;20441;-72
2023/04/13 07:35:38;;;;;;;;;;;;;;;6.63;80.42;100020.44;5042218;28;19962;-73
2023/04/13 07:38:04;;;;;;;;;;;;;;;6.71;80.88;100020.78;5044109;28;20011;-73
2023/04/13 07:40:30;;;;;;;;;;;;;;;6.70;80.02;100023.66;5077553;28;20341;-70
2023/04/13 07:43:00;;;;;;;;;;;;;;;6.62;79.51;100022.31;5044900;28;19945;-72
2023/04/13 07:45:28;;;;;;;;;;;;;;;6.62;80.02;100032.97;5047894;28;19950;-72
2023/04/13 07:47:54;;;;;;;;;;;;;;;6.73;81.08;100029.28;5055548;28;19959;-71
2023/04/13 07:50:20;;;;;;;;;;;;;;;6.82;80.14;100027.69;5047545;28;19931;-72
2023/04/13 07:52:45;;;;;;;;;;;;;;;7.03;79.04;100033.09;5034988;28;20729;-71
2023/04/13 07:55:11;;;;;;;;;;;;;;;7.60;77.62;100026.75;5046934;28;19993;-71
2023/04/13 07:57:43;;;;;;;;;;;;;;;7.85;77.64;100034.72;5051447;28;19932;-70
2023/04/13 08:00:11;;;;;;;;;;;;;;;8.25;76.40;100038.38;5029848;28;19958;-72
2023/04/13 08:02:41;;;;;;;;;;;;;;;8.32;74.82;100033.56;5035181;28;20360;-73
2023/04/13 08:05:10;;;;;;;;;;;;;;;7.84;75.01;100033.13;5063060;28;19949;-72
2023/04/13 08:07:36;;;;;;;;;;;;;;;7.81;76.14;100041.66;5056698;28;19999;-71
2023/04/13 08:10:03;;;;;;;;;;;;;;;7.85;76.00;100050.72;5059087;28;19980;-71
2023/04/13 08:12:28;;;;;;;;;;;;;;;7.66;77.09;100053.16;5057313;28;20028;-71
2023/04/13 08:14:54;;;;;;;;;;;;;;;7.63;76.64;100058.19;5053318;28;20007;-70
2023/04/13 08:17:20;;;;;;;;;;;;;;;7.61;76.13;100060.34;5043300;28;20301;-71
2023/04/13 08:19:46;;;;;;;;;;;;;;;7.63;75.77;100058.19;5046320;28;19935;-72
2023/04/13 08:22:15;;;;;;;;;;;;;;;7.91;76.05;100060.31;5062771;28;19954;-70
2023/04/13 08:24:41;;;;;;;;;;;;;;;8.37;76.06;100060.25;5051167;28;19949;-72
2023/04/13 08:27:06;;;;;;;;;;;;;;;8.31;73.89;100053.31;5042074;28;19935;-72
2023/04/13 08:29:35;;;;;;;;;;;;;;;8.25;74.11;100065.06;5061709;28;19933;-74
2023/04/13 08:32:01;;;;;;;;;;;;;;;8.47;73.95;100059.44;5044744;28;20002;-72
2023/04/13 08:34:28;;;;;;;;;;;;;;;8.65;73.84;100072.19;5047538;28;19957;-70
2023/04/13 08:36:54;;;;;;;;;;;;;;;8.67;74.47;100077.22;5024084;28;20045;-73
2023/04/13 08:39:22;;;;;;;;;;;;;;;8.57;71.96;100069.28;5045689;28;19986;-72
2023/04/13 08:41:49;;;;;;;;;;;;;;;8.45;73.01;100072.25;5026088;28;19952;-71
2023/04/13 08:44:17;;;;;;;;;;;;;;;8.66;72.93;100079.09;5048356;28;19948;-73
2023/04/13 08:46:45;;;;;;;;;;;;;;;8.52;72.91;100083.44;5037297;28;20672;-72
2023/04/13 08:49:13;;;;;;;;;;;;;;;8.43;71.31;100079.72;5030780;28;19931;-72
2023/04/13 08:51:58;;;;;;;;;;;;;;;8.70;71.93;100090.06;5065957;28;19928;-71
2023/04/13 08:54:25;;;;;;;;;;;;;;;8.49;71.52;100097.31;5057140;28;20349;-71
2023/04/13 08:56:51;;;;;;;;;;;;;;;8.38;71.07;100101.88;5063151;28;19935;-72
2023/04/13 08:59:21;;;;;;;;;;;;;;;8.80;70.65;100103.34;5066788;28;20083;-72
2023/04/13 09:01:47;;;;;;;;;;;;;;;8.74;71.07;100099.13;5056978;28;19976;-71
2023/04/13 09:04:16;;;;;;;;;;;;;;;8.67;69.37;100109.25;5060956;28;19957;-74
2023/04/13 09:06:46;;;;;;;;;;;;;;;8.51;69.44;100115.72;5062729;28;20017;-72
2023/04/13 09:09:13;;;;;;;;;;;;;;;8.51;68.84;100115.72;5061201;28;19941;-73
2023/04/13 09:11:40;;;;;;;;;;;;;;;8.45;70.26;100131.75;5032246;28;19964;-74
2023/04/13 09:14:08;;;;;;;;;;;;;;;8.40;69.97;100130.94;5061557;28;19952;-73
2023/04/13 09:16:38;;;;;;;;;;;;;;;8.33;69.74;100138.41;5066357;28;19932;-72
2023/04/13 09:19:07;;;;;;;;;;;;;;;8.73;69.84;100132.22;5066276;28;19990;-73
2023/04/13 09:21:39;;;;;;;;;;;;;;;8.96;68.18;100149.50;5049003;28;19954;-73
2023/04/13 09:24:05;;;;;;;;;;;;;;;9.28;70.88;100143.75;5049484;28;20000;-72
2023/04/13 09:26:44;;;;;;;;;;;;;;;9.50;68.21;100146.84;5062061;28;19965;-73
2023/04/13 09:29:12;;;;;;;;;;;;;;;9.86;67.93;100146.59;5061345;28;19975;-72
2023/04/13 09:31:41;;;;;;;;;;;;;;;9.73;67.17;100152.56;5061226;28;20297;-73
2023/04/13 09:34:09;;;;;;;;;;;;;;;9.87;66.94;100150.84;5061470;28;19961;-72
2023/04/13 09:36:35;;;;;;;;;;;;;;;10.30;66.70;100151.09;5060130;28;19939;-71
2023/04/13 09:39:02;;;;;;;;;;;;;;;10.45;65.36;100163.53;5059312;28;20497;-72
2023/04/13 09:41:28;;;;;;;;;;;;;;;9.84;63.69;100154.09;5031371;28;19956;-73
2023/04/13 09:43:54;;;;;;;;;;;;;;;9.55;63.61;100162.84;5051221;28;19946;-74
2023/04/13 09:46:20;;;;;;;;;;;;;;;9.49;63.35;100150.59;5042925;28;20384;-72
2023/04/13 09:48:56;;;;;;;;;;;;;;;9.65;64.56;100150.47;5046354;28;19978;-72
2023/04/13 09:51:22;;;;;;;;;;;;;;;9.66;66.08;100157.44;5060981;28;19969;-72
2023/04/13 09:53:48;;;;;;;;;;;;;;;9.90;63.02;100165.56;5073967;28;19994;-70
2023/04/13 09:56:14;;;;;;;;;;;;;;;9.94;62.30;100155.88;5063214;28;20313;-73
2023/04/13 09:58:43;;;;;;;;;;;;;;;10.34;63.49;100170.84;5065774;28;20002;-73
2023/04/13 10:01:09;;;;;;;;;;;;;;;10.49;61.52;100176.03;5028103;28;19960;-72
2023/04/13 10:03:35;;;;;;;;;;;;;;;10.34;63.05;100179.66;5056441;28;20036;-71
2023/04/13 10:06:03;;;;;;;;;;;;;;;10.69;62.09;100176.94;5056446;28;19943;-73
2023/04/13 10:08:29;;;;;;;;;;;;;;;10.54;60.47;100192.06;5056648;28;21427;-73
2023/04/13 10:10:55;;;;;;;;;;;;;;;10.97;61.35;100186.78;5051435;28;19927;-72
2023/04/13 10:13:27;;;;;;;;;;;;;;;11.43;59.32;100187.03;5060533;28;19933;-71
2023/04/13 10:16:05;;;;;;;;;;;;;;;11.56;59.12;100188.22;5057331;28;20388;-74
2023/04/13 10:18:46;;;;;;;;;;;;;;;11.61;56.97;100190.81;5058528;28;20026;-74
2023/04/13 10:21:12;;;;;;;;;;;;;;;11.46;56.23;100205.25;5037776;28;19952;-73
2023/04/13 10:23:38;;;;;;;;;;;;;;;11.11;57.58;100203.81;5065377;28;19990;-72
2023/04/13 10:26:05;;;;;;;;;;;;;;;10.90;57.58;100203.22;5044443;28;20575;-72
2023/04/13 10:28:43;;;;;;;;;;;;;;;10.61;56.42;100210.47;5058596;28;19980;-72
2023/04/13 10:31:09;;;;;;;;;;;;;;;10.84;58.03;100207.03;5060040;28;20061;-73
2023/04/13 10:33:45;;;;;;;;;;;;;;;11.02;60.03;100216.22;5043005;28;20470;-74
2023/04/13 10:36:11;;;;;;;;;;;;;;;11.09;59.08;100211.31;5043499;28;19936;-72
2023/04/13 10:38:44;;;;;;;;;;;;;;;11.84;58.16;100215.22;5057474;28;19946;-72
2023/04/13 10:41:21;;;;;;;;;;;;;;;11.79;56.14;100212.59;5058658;28;19958;-71
2023/04/13 10:43:47;;;;;;;;;;;;;;;11.14;55.26;100219.31;5044472;28;20019;-72
2023/04/13 10:46:13;;;;;;;;;;;;;;;11.04;56.47;100214.06;5043806;28;20495;-72
2023/04/13 10:48:42;;;;;;;;;;;;;;;10.73;57.48;100220.81;5056378;28;19931;-72
2023/04/13 10:51:07;;;;;;;;;;;;;;;10.80;57.02;100223.97;5042419;28;20619;-71
2023/04/13 10:53:34;;;;;;;;;;;;;;;11.41;57.78;100217.91;5076204;28;19954;-72
2023/04/13 10:56:00;;;;;;;;;;;;;;;11.84;53.98;100215.22;5063594;28;19938;-72
2023/04/13 10:58:27;;;;;;;;;;;;;;;11.25;55.17;100237.97;5064356;28;19949;-74
2023/04/13 11:00:56;;;;;;;;;;;;;;;11.18;55.94;100231.06;5061410;28;19943;-73
2023/04/13 11:03:25;;;;;;;;;;;;;;;11.07;55.95;100234.91;5044109;28;19936;-74
2023/04/13 11:05:57;;;;;;;;;;;;;;;11.70;53.61;100237.34;5053555;28;20005;-72
2023/04/13 11:08:23;;;;;;;;;;;;;;;12.63;52.09;100232.22;5029858;28;19935;-72
2023/04/13 11:10:52;;;;;;;;;;;;;;;12.34;52.62;100242.38;5046464;28;20310;-72
2023/04/13 11:13:18;;;;;;;;;;;;;;;12.49;53.55;100250.19;5068905;28;19931;-72
2023/04/13 11:15:44;;;;;;;;;;;;;;;12.32;52.18;100248.03;5058818;28;20024;-73
2023/04/13 11:18:09;;;;;;;;;;;;;;;12.37;54.13;100256.00;5074594;28;19992;-71
2023/04/13 11:20:36;;;;;;;;;;;;;;;12.42;53.20;100247.88;5039819;28;19977;-72
2023/04/13 11:23:14;;;;;;;;;;;;;;;12.70;53.11;100251.44;5049920;28;20444;-72
2023/04/13 11:25:56;;;;;;;;;;;;;;;12.76;51.45;100262.91;5074173;28;20450;-72
2023/04/13 11:28:22;;;;;;;;;;;;;;;12.73;52.00;100260.78;5054126;28;19943;-71
2023/04/13 11:30:57;;;;;;;;;;;;;;;12.63;51.29;100261.75;5056142;28;20400;-72
2023/04/13 11:33:23;;;;;;;;;;;;;;;12.60;52.99;100274.97;5046087;28;20392;-73
2023/04/13 11:35:51;;;;;;;;;;;;;;;12.43;51.39;100275.53;5054350;28;19929;-72
2023/04/13 11:38:17;;;;;;;;;;;;;;;12.32;53.37;100274.09;5060752;28;19949;-72
2023/04/13 11:40:44;;;;;;;;;;;;;;;12.50;53.48;100289.38;5026167;28;19936;-72
2023/04/13 11:43:10;;;;;;;;;;;;;;;12.46;53.53;100275.75;5062114;28;19953;-72
2023/04/13 11:45:37;;;;;;;;;;;;;;;12.29;55.35;100280.84;5049381;28;20441;-71
2023/04/13 11:48:05;;;;;;;;;;;;;;;11.75;53.07;100285.59;5064383;28;19978;-72
2023/04/13 11:50:31;;;;;;;;;;;;;;;11.62;54.78;100290.84;5058547;28;19975;-72
2023/04/13 11:52:57;;;;;;;;;;;;;;;11.93;53.53;100288.63;5061993;28;19979;-70
2023/04/13 11:55:23;;;;;;;;;;;;;;;12.10;53.19;100288.09;5049484;28;20529;-72
2023/04/13 11:57:50;;;;;;;;;;;;;;;12.01;53.16;100288.75;5062720;28;20407;-75
2023/04/13 12:00:22;;;;;;;;;;;;;;;12.53;52.73;100292.28;5047426;28;19940;-74
2023/04/13 12:02:52;;;;;;;;;;;;;;;12.10;53.46;100288.91;5068285;28;19979;-73
2023/04/13 12:05:25;;;;;;;;;;;;;;;11.85;53.69;100297.28;5056275;28;19954;-73
2023/04/13 12:07:53;;;;;;;;;;;;;;;11.74;53.67;100300.09;5031751;28;20014;-73
2023/04/13 12:10:23;;;;;;;;;;;;;;;12.35;51.65;100300.38;5059281;28;19950;-72
2023/04/13 12:12:59;;;;;;;;;;;;;;;12.87;52.54;100295.75;5053991;28;19935;-72
2023/04/13 12:15:28;;;;;;;;;;;;;;;12.55;50.42;100305.41;5059570;28;19954;-71
2023/04/13 12:17:55;;;;;;;;;;;;;;;12.98;52.51;100306.03;5059817;28;19931;-72
2023/04/13 12:20:20;;;;;;;;;;;;;;;12.77;50.62;100300.22;5056587;28;20357;-71
2023/04/13 12:22:46;;;;;;;;;;;;;;;12.81;50.09;100308.50;5054147;28;20055;-73
2023/04/13 12:25:20;;;;;;;;;;;;;;;12.94;49.59;100317.66;5056099;28;20000;-75
2023/04/13 12:27:48;;;;;;;;;;;;;;;13.48;49.66;100316.16;5057166;28;19938;-73
2023/04/13 12:30:14;;;;;;;;;;;;;;;12.89;50.74;100323.94;5063722;28;20425;-72
2023/04/13 12:32:44;;;;;;;;;;;;;;;13.73;50.35;100312.16;5064738;28;19941;-73
2023/04/13 12:35:10;;;;;;;;;;;;;;;13.28;50.17;100317.38;5067265;28;20257;-72
2023/04/13 12:37:42;;;;;;;;;;;;;;;13.72;49.31;100314.06;5068062;28;20392;-72
2023/04/13 12:40:12;;;;;;;;;;;;;;;12.85;51.20;100315.66;5058139;28;19936;-72
2023/04/13 12:42:39;;;;;;;;;;;;;;;12.87;51.50;100328.00;5059976;28;19968;-72
2023/04/13 12:45:05;;;;;;;;;;;;;;;13.63;50.41;100326.63;5058587;28;19948;-74
2023/04/13 12:47:31;;;;;;;;;;;;;;;13.76;48.84;100325.84;5068992;28;20483;-74
2023/04/13 12:49:57;;;;;;;;;;;;;;;13.39;50.34;100334.88;5050568;28;20036;-74
2023/04/13 12:52:22;;;;;;;;;;;;;;;13.15;49.23;100340.41;5055829;28;19940;-72
2023/04/13 12:54:50;;;;;;;;;;;;;;;12.44;51.10;100349.63;5059014;28;20408;-72
2023/04/13 12:57:16;;;;;;;;;;;;;;;12.40;52.07;100348.63;5066122;28;19945;-72